Flight Track Log - Related Links

Times and Time Zones

All times are in EDT time to prevent confusion due to time zone crossing. See the LXJ342 flight status page for this flight to view local times or setup timezone preferences in your user account.

Time Position Orientation Groundspeed Altitude Reporting Facility
EDT Latitude Longitude Course Direction KTS MPH feet Rate Location/Type
Tue 04:47:03 PM 40.8333 -74.1000 252° West 192 221 1,500  Level New York TRACON
Tue 04:48:03 PM 40.8167 -74.1667 252° West 214 246 1,700 1,650 Climbing New York TRACON
Tue 04:49:03 PM 40.8167 -74.2500 270° West 221 254 4,800 2,500 Climbing New York TRACON
Tue 04:50:03 PM 40.8167 -74.3333 270° West 232 267 6,700 2,550 Climbing New York TRACON
Tue 04:51:03 PM 40.8167 -74.4333 270° West 282 325 9,900 2,842 Climbing New York TRACON
Tue 04:52:54 PM 40.8567 -74.6394 284° West 337 388 14,800 2,421 Climbing New York Center
Tue 04:53:54 PM 40.8419 -74.7675 261° West 377 434 16,800 1,934 Climbing New York Center
Tue 04:54:55 PM 40.8236 -74.9336 262° West 422 486 18,700 1,966 Climbing New York Center
Tue 04:55:53 PM 40.8078 -75.0864 262° West 427 491 20,700 1,815 Climbing New York Center
Tue 04:56:54 PM 40.7928 -75.2086 261° West 427 491 22,300 1,967 Climbing New York Center
Tue 04:57:55 PM 40.7564 -75.3953 256° West 433 498 24,700 2,017 Climbing New York Center
Tue 04:58:53 PM 40.7092 -75.5372 246° West 428 493 26,300 1,641 Climbing New York Center
Tue 04:59:52 PM 40.6508 -75.6892 243° Southwest 443 510 27,900 1,550 Climbing New York Center
Tue 05:00:53 PM 40.5992 -75.8250 243° Southwest 459 528 29,400 1,438 Climbing New York Center
Tue 05:01:53 PM 40.5339 -75.9839 242° Southwest 464 534 30,800 1,289 Climbing New York Center
Tue 05:02:54 PM 40.4792 -76.1353 245° Southwest 464 534 32,000 1,190 Climbing New York Center
Tue 05:03:54 PM 40.4222 -76.2892 244° Southwest 459 528 33,200 1,190 Climbing New York Center
Tue 05:04:55 PM 40.3792 -76.4464 250° West 459 528 34,400 1,190 Climbing New York Center
Tue 05:05:55 PM 40.3383 -76.6011 251° West 459 528 35,600 814 Climbing New York Center
Tue 05:06:53 PM 40.2950 -76.7581 250° West 459 528 36,000 203 Climbing New York Center
Tue 05:07:53 PM 40.2517 -76.9147 250° West 459 528 36,000  Level New York Center
Tue 05:08:53 PM 40.2094 -77.0822 252° West 466 536 36,000  Level New York Center
Tue 05:09:54 PM 40.1678 -77.2361 251° West 466 536 36,000  Level New York Center
Tue 05:11:57 PM 40.1403 -77.5875 264° West 469 540 36,000  Level Cleveland Center
Tue 05:12:57 PM 40.1342 -77.7589 267° West 479 551 36,000  Level Cleveland Center
Tue 05:13:57 PM 40.1278 -77.9219 267° West 490 564 36,000  Level Cleveland Center
Tue 05:14:57 PM 40.1214 -78.0933 267° West 490 564 36,000 150 Level Cleveland Center
Tue 05:15:57 PM 40.1269 -78.2697 272° West 490 564 36,300 650 Climbing Cleveland Center
Tue 05:16:57 PM 40.1431 -78.4431 277° West 484 557 37,300 950 Climbing Cleveland Center
Tue 05:17:57 PM 40.1586 -78.6136 277° West 484 557 38,200 850 Climbing Cleveland Center
Tue 05:18:57 PM 40.1697 -78.7817 275° West 477 549 39,000 600 Climbing Cleveland Center
Tue 05:19:57 PM 40.1722 -78.9475 271° West 472 543 39,400 496 Climbing Cleveland Center
Tue 05:20:58 PM 40.1411 -79.1056 256° West 467 537 40,000 300 Climbing Cleveland Center
Tue 05:21:57 PM 40.1097 -79.2692 256° West 462 532 40,000  Level Cleveland Center
Tue 05:22:57 PM 40.0864 -79.4297 259° West 462 532 40,000  Level Cleveland Center
Tue 05:23:57 PM 40.0586 -79.5931 258° West 462 532 40,000  Level Cleveland Center
Tue 05:24:57 PM 40.0286 -79.7561 257° West 462 532 40,000  Level Cleveland Center
Tue 05:25:57 PM 39.9986 -79.9164 256° West 462 532 40,000  Level Cleveland Center
Tue 05:26:57 PM 39.9681 -80.0792 256° West 462 532 40,000  Level Cleveland Center
Tue 05:27:57 PM 39.9417 -80.2364 258° West 457 526 40,000  Level Cleveland Center
Tue 05:28:57 PM 39.9106 -80.3992 256° West 457 526 40,000  Level Cleveland Center
Tue 05:29:57 PM 39.8794 -80.5614 256° West 457 526 40,000  Level Cleveland Center
Tue 05:31:35 PM 39.8247 -80.8358 256° West 462 532 40,000  Level Indianapolis Center
Tue 05:32:37 PM 39.7933 -80.9981 256° West 463 533 40,000  Level Indianapolis Center
Tue 05:33:39 PM 39.7628 -81.1644 257° West 469 540 40,000  Level Indianapolis Center
Tue 05:34:41 PM 39.7314 -81.3278 256° West 470 541 40,000  Level Indianapolis Center
Tue 05:35:43 PM 39.6986 -81.4919 256° West 466 536 40,000  Level Indianapolis Center
Tue 05:36:45 PM 39.6611 -81.6847 256° West 468 539 40,000  Level Indianapolis Center
Tue 05:37:47 PM 39.6278 -81.8475 255° West 468 539 40,000  Level Indianapolis Center
Tue 05:38:49 PM 39.5956 -82.0108 256° West 469 540 40,000  Level Indianapolis Center
Tue 05:39:51 PM 39.5600 -82.1792 255° West 469 540 40,000  Level Indianapolis Center
Tue 05:40:53 PM 39.5275 -82.3439 256° West 468 539 40,000  Level Indianapolis Center
Tue 05:41:56 PM 39.4931 -82.5083 255° West 469 540 40,000  Level Indianapolis Center
Tue 05:42:58 PM 39.4583 -82.6725 255° West 469 540 40,000  Level Indianapolis Center
Tue 05:44:00 PM 39.4181 -82.8639 255° West 468 539 40,000  Level Indianapolis Center
Tue 05:45:02 PM 39.3839 -83.0283 255° West 468 539 40,000  Level Indianapolis Center
Tue 05:46:04 PM 39.3483 -83.1919 254° West 466 536 40,000  Level Indianapolis Center
Tue 05:47:06 PM 39.3136 -83.3556 255° West 465 535 40,000  Level Indianapolis Center
Tue 05:48:08 PM 39.2794 -83.5181 255° West 463 533 40,000  Level Indianapolis Center
Tue 05:49:10 PM 39.2428 -83.6786 254° West 461 531 40,000  Level Indianapolis Center
Tue 05:50:12 PM 39.2081 -83.8383 254° West 458 527 40,000  Level Indianapolis Center
Tue 05:51:14 PM 39.1736 -83.9981 255° West 457 526 40,000  Level Indianapolis Center
Tue 05:52:16 PM 39.1375 -84.1569 254° West 457 526 40,000  Level Indianapolis Center
Tue 05:53:18 PM 39.0961 -84.3411 254° West 456 525 40,000  Level Indianapolis Center
Tue 05:54:20 PM 39.0606 -84.4994 254° West 455 524 40,000  Level Indianapolis Center
Tue 05:55:22 PM 39.0244 -84.6600 254° West 462 532 40,000  Level Indianapolis Center
Tue 05:56:24 PM 38.9792 -84.8183 250° West 466 536 40,000  Level Indianapolis Center
Tue 05:57:26 PM 38.9222 -84.9736 245° Southwest 465 535 40,000  Level Indianapolis Center
Tue 05:58:28 PM 38.8703 -85.1267 246° West 468 539 40,000  Level Indianapolis Center
Tue 05:59:30 PM 38.8169 -85.2794 246° West 469 540 40,000  Level Indianapolis Center
Tue 06:00:32 PM 38.7644 -85.4339 246° West 472 543 40,000  Level Indianapolis Center
Tue 06:01:34 PM 38.7100 -85.5878 246° West 474 545 40,000  Level Indianapolis Center
Tue 06:02:36 PM 38.6467 -85.7728 246° West 474 545 40,000  Level Indianapolis Center
Tue 06:03:38 PM 38.5983 -85.9103 246° West 475 547 40,000  Level Indianapolis Center
Tue 06:04:40 PM 38.5439 -86.0633 246° West 472 543 40,000  Level Indianapolis Center
Tue 06:05:42 PM 38.4794 -86.2469 246° West 471 542 40,000  Level Indianapolis Center
Tue 06:06:44 PM 38.4411 -86.4064 253° West 468 539 40,000  Level Indianapolis Center
Tue 06:07:46 PM 38.4033 -86.5653 253° West 466 536 40,000  Level Indianapolis Center
Tue 06:08:48 PM 38.3650 -86.7242 253° West 467 537 40,000  Level Indianapolis Center
Tue 06:09:50 PM 38.3269 -86.8833 253° West 467 537 40,000  Level Indianapolis Center
Tue 06:10:52 PM 38.2864 -87.0550 253° West 470 541 40,000  Level Indianapolis Center
Tue 06:11:54 PM 38.2483 -87.2139 253° West 470 541 40,000  Level Indianapolis Center
Tue 06:12:56 PM 38.2092 -87.3736 253° West 463 533 40,000  Level Indianapolis Center
Tue 06:13:59 PM 38.1714 -87.5283 253° West 458 527 40,000  Level Indianapolis Center
Tue 06:15:01 PM 38.1339 -87.6819 253° West 455 524 40,000  Level Indianapolis Center
Tue 06:16:03 PM 38.0872 -87.8642 252° West 451 519 40,000  Level Indianapolis Center
Tue 06:16:52 PM 38.0581 -87.9875 253° West 453 521 40,000  Level Kansas City Center
Tue 06:17:54 PM 38.0194 -88.1394 252° West 452 520 40,000  Level Kansas City Center
Tue 06:18:56 PM 37.9814 -88.2908 252° West 451 519 40,000  Level Kansas City Center
Tue 06:19:58 PM 37.9478 -88.4469 255° West 455 524 40,000  Level Kansas City Center
Tue 06:21:00 PM 37.9181 -88.6039 257° West 455 524 40,000  Level Kansas City Center
Tue 06:22:02 PM 37.8867 -88.7661 256° West 456 525 40,000  Level Kansas City Center
Tue 06:23:04 PM 37.8558 -88.9206 256° West 454 522 40,000  Level Kansas City Center
Tue 06:24:06 PM 37.8200 -89.1056 256° West 458 527 40,000  Level Kansas City Center
Tue 06:25:08 PM 37.7908 -89.2503 256° West 455 524 40,000  Level Kansas City Center
Tue 06:26:10 PM 37.7586 -89.4161 256° West 451 519 40,000  Level Kansas City Center
Tue 06:27:12 PM 37.7278 -89.5681 256° West 449 517 40,000  Level Kansas City Center
Tue 06:28:14 PM 37.6969 -89.7200 256° West 446 513 40,000  Level Kansas City Center
Tue 06:29:16 PM 37.6658 -89.8728 256° West 448 516 40,000  Level Kansas City Center
Tue 06:30:18 PM 37.6342 -90.0250 255° West 449 517 40,000  Level Kansas City Center
Tue 06:31:20 PM 37.6025 -90.1783 255° West 449 517 40,000  Level Kansas City Center
Tue 06:32:22 PM 37.5714 -90.3308 256° West 450 518 40,000  Level Kansas City Center
Tue 06:33:24 PM 37.5328 -90.5103 255° West 446 513 40,000  Level Kansas City Center
Tue 06:34:26 PM 37.5017 -90.6600 255° West 442 509 40,000  Level Kansas City Center
Tue 06:35:28 PM 37.4694 -90.8056 254° West 441 507 40,000  Level Kansas City Center
Tue 06:36:30 PM 37.4386 -90.9567 256° West 443 510 40,000  Level Kansas City Center
Tue 06:37:32 PM 37.3994 -91.1378 255° West 445 512 40,000  Level Kansas City Center
Tue 06:38:34 PM 37.3667 -91.2883 255° West 445 512 40,000  Level Kansas City Center
Tue 06:39:36 PM 37.3342 -91.4394 255° West 444 511 40,000  Level Kansas City Center
Tue 06:40:38 PM 37.3028 -91.5875 255° West 441 507 40,000  Level Kansas City Center
Tue 06:41:40 PM 37.2700 -91.7372 255° West 441 507 40,000  Level Kansas City Center
Tue 06:42:42 PM 37.2361 -91.8864 254° West 442 509 40,000  Level Kansas City Center
Tue 06:43:45 PM 37.2028 -92.0358 254° West 442 509 40,000  Level Kansas City Center
Tue 06:44:47 PM 37.1689 -92.1828 254° West 440 506 40,000 -194 Level Kansas City Center
Tue 06:45:49 PM 37.1300 -92.3567 254° West 432 497 39,600 -1,113 Descending Kansas City Center
Tue 06:46:51 PM 37.0953 -92.5042 254° West 435 501 37,700 -2,032 Descending Kansas City Center
Tue 06:47:53 PM 37.0619 -92.6556 255° West 444 511 35,400 -3,000 Descending Kansas City Center
Tue 06:48:55 PM 37.0275 -92.8036 254° West 443 510 31,500 -4,161 Descending Kansas City Center
Tue 06:49:57 PM 36.9911 -92.9581 254° West 452 520 26,800 -4,355 Descending Kansas City Center
Tue 06:50:59 PM 36.9556 -93.1111 254° West 457 526 22,500 -4,113 Descending Kansas City Center
Tue 06:52:01 PM 36.9225 -93.2569 254° West 444 511 18,300 -3,919 Descending Kansas City Center
Tue 06:53:03 PM 36.8489 -93.3661 230° Southwest 401 461 14,400 -3,774 Descending Kansas City Center
Tue 06:54:05 PM 36.7783 -93.4603 227° Southwest 380 437 10,500 -3,097 Descending Kansas City Center
Tue 06:55:07 PM 36.7183 -93.5372 226° Southwest 348 400 8,000 -2,419 Descending Kansas City Center
Tue 06:56:09 PM 36.6519 -93.6094 221° Southwest 296 341 5,500 -1,935 Descending Kansas City Center
Tue 06:57:11 PM 36.6133 -93.6911 240° Southwest 283 326 4,000 -726 Descending Kansas City Center
Tue 06:58:13 PM 36.5847 -93.7714 246° West 269 310 4,000  Level Kansas City Center
Tue 06:59:15 PM 36.5525 -93.8472 242° Southwest 257 296 4,000  Level Kansas City Center
Tue 07:00:17 PM 36.5211 -93.9211 242° Southwest 249 287 4,000 -435 Level Kansas City Center
Tue 07:01:19 PM 36.4839 -94.0139 244° Southwest 248 285 3,100 -435 Descending Kansas City Center
Tue 07:02:21 PM 36.4497 -94.0714 234° Southwest 232 267 3,100 -194 Level Kansas City Center
Tue 07:03:23 PM 36.4056 -94.0814 190° South 214 246 2,700 -387 Descending Kansas City Center
Tue 07:05:00 PM 36.3724 -94.1070 North  Level Estimated

Login

Don't have an account? Register now (free) for customized features, flight alerts, and more!